sensor_id;sensor_type;location;lat;lon;timestamp;pressure;altitude;pressure_sealevel;temperature
35582;BMP180;21687;48.900;9.188;2024-01-06T00:02:05;97210.00;;;4.40
35582;BMP180;21687;48.900;9.188;2024-01-06T00:04:31;97213.00;;;4.40
35582;BMP180;21687;48.900;9.188;2024-01-06T00:06:58;97207.00;;;4.40
35582;BMP180;21687;48.900;9.188;2024-01-06T00:09:24;97211.00;;;4.50
35582;BMP180;21687;48.900;9.188;2024-01-06T00:11:51;97213.00;;;4.50
35582;BMP180;21687;48.900;9.188;2024-01-06T00:14:17;97221.00;;;4.50
35582;BMP180;21687;48.900;9.188;2024-01-06T00:16:43;97213.00;;;4.50
35582;BMP180;21687;48.900;9.188;2024-01-06T00:19:10;97219.00;;;4.60
35582;BMP180;21687;48.900;9.188;2024-01-06T00:21:36;97217.00;;;4.60
35582;BMP180;21687;48.900;9.188;2024-01-06T00:24:03;97206.00;;;4.50
35582;BMP180;21687;48.900;9.188;2024-01-06T00:26:29;97201.00;;;4.50
35582;BMP180;21687;48.900;9.188;2024-01-06T00:28:55;97220.00;;;4.50
35582;BMP180;21687;48.900;9.188;2024-01-06T00:31:22;97214.00;;;4.50
35582;BMP180;21687;48.900;9.188;2024-01-06T00:33:48;97222.00;;;4.50
35582;BMP180;21687;48.900;9.188;2024-01-06T00:36:14;97207.00;;;4.50
35582;BMP180;21687;48.900;9.188;2024-01-06T00:38:41;97221.00;;;4.50
35582;BMP180;21687;48.900;9.188;2024-01-06T00:41:07;97221.00;;;4.50
35582;BMP180;21687;48.900;9.188;2024-01-06T00:43:34;97222.00;;;4.50
35582;BMP180;21687;48.900;9.188;2024-01-06T00:46:00;97224.00;;;4.50
35582;BMP180;21687;48.900;9.188;2024-01-06T00:48:27;97211.00;;;4.50
35582;BMP180;21687;48.900;9.188;2024-01-06T00:50:53;97219.00;;;4.50
35582;BMP180;21687;48.900;9.188;2024-01-06T00:53:19;97223.00;;;4.50
35582;BMP180;21687;48.900;9.188;2024-01-06T00:55:46;97224.00;;;4.50
35582;BMP180;21687;48.900;9.188;2024-01-06T00:58:12;97232.00;;;4.50
35582;BMP180;21687;48.900;9.188;2024-01-06T01:00:39;97239.00;;;4.50
35582;BMP180;21687;48.900;9.188;2024-01-06T01:03:06;97241.00;;;4.50
35582;BMP180;21687;48.900;9.188;2024-01-06T01:05:32;97245.00;;;4.50
35582;BMP180;21687;48.900;9.188;2024-01-06T01:07:58;97256.00;;;4.50
35582;BMP180;21687;48.900;9.188;2024-01-06T01:10:25;97257.00;;;4.50
35582;BMP180;21687;48.900;9.188;2024-01-06T01:12:51;97252.00;;;4.50
35582;BMP180;21687;48.900;9.188;2024-01-06T01:15:18;97260.00;;;4.60
35582;BMP180;21687;48.900;9.188;2024-01-06T01:17:44;97262.00;;;4.60
35582;BMP180;21687;48.900;9.188;2024-01-06T01:20:11;97269.00;;;4.50
35582;BMP180;21687;48.900;9.188;2024-01-06T01:22:37;97260.00;;;4.60
35582;BMP180;21687;48.900;9.188;2024-01-06T01:25:04;97267.00;;;4.60
35582;BMP180;21687;48.900;9.188;2024-01-06T01:27:36;97276.00;;;4.50
35582;BMP180;21687;48.900;9.188;2024-01-06T01:30:03;97278.00;;;4.50
35582;BMP180;21687;48.900;9.188;2024-01-06T01:32:29;97269.00;;;4.50
35582;BMP180;21687;48.900;9.188;2024-01-06T01:34:56;97273.00;;;4.50
35582;BMP180;21687;48.900;9.188;2024-01-06T01:37:22;97278.00;;;4.60
35582;BMP180;21687;48.900;9.188;2024-01-06T01:39:49;97282.00;;;4.60
35582;BMP180;21687;48.900;9.188;2024-01-06T01:42:15;97280.00;;;4.60
35582;BMP180;21687;48.900;9.188;2024-01-06T01:44:42;97275.00;;;4.60
35582;BMP180;21687;48.900;9.188;2024-01-06T01:47:08;97278.00;;;4.70
35582;BMP180;21687;48.900;9.188;2024-01-06T01:49:35;97284.00;;;4.70
35582;BMP180;21687;48.900;9.188;2024-01-06T01:52:02;97291.00;;;4.70
35582;BMP180;21687;48.900;9.188;2024-01-06T01:54:30;97290.00;;;4.80
35582;BMP180;21687;48.900;9.188;2024-01-06T01:56:56;97282.00;;;4.80
35582;BMP180;21687;48.900;9.188;2024-01-06T01:59:23;97293.00;;;4.80
35582;BMP180;21687;48.900;9.188;2024-01-06T02:01:49;97289.00;;;4.80
35582;BMP180;21687;48.900;9.188;2024-01-06T02:04:16;97291.00;;;4.70
35582;BMP180;21687;48.900;9.188;2024-01-06T02:06:43;97297.00;;;4.80
35582;BMP180;21687;48.900;9.188;2024-01-06T02:09:09;97285.00;;;4.80
35582;BMP180;21687;48.900;9.188;2024-01-06T02:11:35;97293.00;;;4.80
35582;BMP180;21687;48.900;9.188;2024-01-06T02:14:02;97298.00;;;4.70
35582;BMP180;21687;48.900;9.188;2024-01-06T02:16:28;97300.00;;;4.70
35582;BMP180;21687;48.900;9.188;2024-01-06T02:18:55;97298.00;;;4.80
35582;BMP180;21687;48.900;9.188;2024-01-06T02:21:24;97306.00;;;4.90
35582;BMP180;21687;48.900;9.188;2024-01-06T02:23:53;97302.00;;;4.90
35582;BMP180;21687;48.900;9.188;2024-01-06T02:26:20;97302.00;;;4.80
35582;BMP180;21687;48.900;9.188;2024-01-06T02:28:46;97306.00;;;4.80
35582;BMP180;21687;48.900;9.188;2024-01-06T02:31:14;97315.00;;;4.80
35582;BMP180;21687;48.900;9.188;2024-01-06T02:33:40;97320.00;;;4.90
35582;BMP180;21687;48.900;9.188;2024-01-06T02:36:07;97319.00;;;4.80
35582;BMP180;21687;48.900;9.188;2024-01-06T02:38:33;97317.00;;;4.80
35582;BMP180;21687;48.900;9.188;2024-01-06T02:41:00;97324.00;;;4.80
35582;BMP180;21687;48.900;9.188;2024-01-06T02:43:26;97319.00;;;4.80
35582;BMP180;21687;48.900;9.188;2024-01-06T02:45:52;97320.00;;;4.80
35582;BMP180;21687;48.900;9.188;2024-01-06T02:48:19;97330.00;;;4.80
35582;BMP180;21687;48.900;9.188;2024-01-06T02:50:45;97322.00;;;4.80
35582;BMP180;21687;48.900;9.188;2024-01-06T02:53:11;97320.00;;;4.80
35582;BMP180;21687;48.900;9.188;2024-01-06T02:55:39;97324.00;;;4.80
35582;BMP180;21687;48.900;9.188;2024-01-06T02:58:05;97329.00;;;4.80
35582;BMP180;21687;48.900;9.188;2024-01-06T03:00:31;97325.00;;;4.70
35582;BMP180;21687;48.900;9.188;2024-01-06T03:02:58;97324.00;;;4.80
35582;BMP180;21687;48.900;9.188;2024-01-06T03:05:25;97333.00;;;4.70
35582;BMP180;21687;48.900;9.188;2024-01-06T03:07:52;97334.00;;;4.70
35582;BMP180;21687;48.900;9.188;2024-01-06T03:10:18;97324.00;;;4.60
35582;BMP180;21687;48.900;9.188;2024-01-06T03:12:45;97328.00;;;4.60
35582;BMP180;21687;48.900;9.188;2024-01-06T03:15:11;97337.00;;;4.50
35582;BMP180;21687;48.900;9.188;2024-01-06T03:17:38;97331.00;;;4.50
35582;BMP180;21687;48.900;9.188;2024-01-06T03:20:05;97335.00;;;4.50
35582;BMP180;21687;48.900;9.188;2024-01-06T03:22:31;97332.00;;;4.40
35582;BMP180;21687;48.900;9.188;2024-01-06T03:24:58;97329.00;;;4.40
35582;BMP180;21687;48.900;9.188;2024-01-06T03:27:24;97334.00;;;4.40
35582;BMP180;21687;48.900;9.188;2024-01-06T03:29:51;97331.00;;;4.40
35582;BMP180;21687;48.900;9.188;2024-01-06T03:32:17;97323.00;;;4.30
35582;BMP180;21687;48.900;9.188;2024-01-06T03:34:43;97329.00;;;4.30
35582;BMP180;21687;48.900;9.188;2024-01-06T03:37:10;97316.00;;;4.40
35582;BMP180;21687;48.900;9.188;2024-01-06T03:39:36;97333.00;;;4.40
35582;BMP180;21687;48.900;9.188;2024-01-06T03:42:02;97322.00;;;4.50
35582;BMP180;21687;48.900;9.188;2024-01-06T03:44:29;97322.00;;;4.50
35582;BMP180;21687;48.900;9.188;2024-01-06T03:46:57;97324.00;;;4.50
35582;BMP180;21687;48.900;9.188;2024-01-06T03:49:24;97323.00;;;4.60
35582;BMP180;21687;48.900;9.188;2024-01-06T03:51:51;97310.00;;;4.50
35582;BMP180;21687;48.900;9.188;2024-01-06T03:54:17;97325.00;;;4.50
35582;BMP180;21687;48.900;9.188;2024-01-06T03:56:48;97332.00;;;4.50
35582;BMP180;21687;48.900;9.188;2024-01-06T03:59:15;97320.00;;;4.60
35582;BMP180;21687;48.900;9.188;2024-01-06T04:01:41;97324.00;;;4.50
35582;BMP180;21687;48.900;9.188;2024-01-06T04:04:08;97326.00;;;4.60
35582;BMP180;21687;48.900;9.188;2024-01-06T04:06:34;97324.00;;;4.50
35582;BMP180;21687;48.900;9.188;2024-01-06T04:09:01;97327.00;;;4.50
35582;BMP180;21687;48.900;9.188;2024-01-06T04:11:28;97324.00;;;4.50
35582;BMP180;21687;48.900;9.188;2024-01-06T04:13:54;97327.00;;;4.40
35582;BMP180;21687;48.900;9.188;2024-01-06T04:16:21;97328.00;;;4.50
35582;BMP180;21687;48.900;9.188;2024-01-06T04:18:47;97328.00;;;4.40
35582;BMP180;21687;48.900;9.188;2024-01-06T04:21:13;97329.00;;;4.40
35582;BMP180;21687;48.900;9.188;2024-01-06T04:23:40;97324.00;;;4.40
35582;BMP180;21687;48.900;9.188;2024-01-06T04:26:06;97331.00;;;4.40
35582;BMP180;21687;48.900;9.188;2024-01-06T04:28:33;97346.00;;;4.40
35582;BMP180;21687;48.900;9.188;2024-01-06T04:30:59;97339.00;;;4.30
35582;BMP180;21687;48.900;9.188;2024-01-06T04:33:25;97342.00;;;4.30
35582;BMP180;21687;48.900;9.188;2024-01-06T04:35:52;97341.00;;;4.30
35582;BMP180;21687;48.900;9.188;2024-01-06T04:38:18;97346.00;;;4.30
35582;BMP180;21687;48.900;9.188;2024-01-06T04:40:45;97329.00;;;4.30
35582;BMP180;21687;48.900;9.188;2024-01-06T04:43:11;97341.00;;;4.30
35582;BMP180;21687;48.900;9.188;2024-01-06T04:45:38;97346.00;;;4.20
35582;BMP180;21687;48.900;9.188;2024-01-06T04:48:05;97349.00;;;4.20
35582;BMP180;21687;48.900;9.188;2024-01-06T04:50:31;97342.00;;;4.20
35582;BMP180;21687;48.900;9.188;2024-01-06T04:52:58;97352.00;;;4.20
35582;BMP180;21687;48.900;9.188;2024-01-06T04:55:24;97350.00;;;4.10
35582;BMP180;21687;48.900;9.188;2024-01-06T04:57:51;97350.00;;;4.10
35582;BMP180;21687;48.900;9.188;2024-01-06T05:00:17;97356.00;;;4.10
35582;BMP180;21687;48.900;9.188;2024-01-06T05:02:44;97356.00;;;4.00
35582;BMP180;21687;48.900;9.188;2024-01-06T05:05:10;97357.00;;;4.10
35582;BMP180;21687;48.900;9.188;2024-01-06T05:07:37;97356.00;;;4.00
35582;BMP180;21687;48.900;9.188;2024-01-06T05:10:03;97366.00;;;4.00
35582;BMP180;21687;48.900;9.188;2024-01-06T05:12:30;97363.00;;;4.10
35582;BMP180;21687;48.900;9.188;2024-01-06T05:14:56;97374.00;;;4.00
35582;BMP180;21687;48.900;9.188;2024-01-06T05:17:22;97370.00;;;4.10
35582;BMP180;21687;48.900;9.188;2024-01-06T05:19:49;97366.00;;;4.00
35582;BMP180;21687;48.900;9.188;2024-01-06T05:22:15;97375.00;;;4.00
35582;BMP180;21687;48.900;9.188;2024-01-06T05:24:42;97366.00;;;4.00
35582;BMP180;21687;48.900;9.188;2024-01-06T05:27:08;97373.00;;;4.00
35582;BMP180;21687;48.900;9.188;2024-01-06T05:29:34;97375.00;;;4.00
35582;BMP180;21687;48.900;9.188;2024-01-06T05:32:01;97375.00;;;3.90
35582;BMP180;21687;48.900;9.188;2024-01-06T05:34:27;97377.00;;;3.90
35582;BMP180;21687;48.900;9.188;2024-01-06T05:36:53;97383.00;;;3.90
35582;BMP180;21687;48.900;9.188;2024-01-06T05:39:20;97388.00;;;3.90
35582;BMP180;21687;48.900;9.188;2024-01-06T05:41:46;97390.00;;;3.90
35582;BMP180;21687;48.900;9.188;2024-01-06T05:44:12;97394.00;;;3.80
35582;BMP180;21687;48.900;9.188;2024-01-06T05:46:39;97387.00;;;3.90
35582;BMP180;21687;48.900;9.188;2024-01-06T05:49:05;97385.00;;;3.90
35582;BMP180;21687;48.900;9.188;2024-01-06T05:51:31;97379.00;;;3.90
35582;BMP180;21687;48.900;9.188;2024-01-06T05:53:58;97389.00;;;3.90
35582;BMP180;21687;48.900;9.188;2024-01-06T05:56:28;97390.00;;;3.80
35582;BMP180;21687;48.900;9.188;2024-01-06T05:58:54;97386.00;;;3.80
35582;BMP180;21687;48.900;9.188;2024-01-06T06:01:21;97396.00;;;3.80
35582;BMP180;21687;48.900;9.188;2024-01-06T06:03:47;97400.00;;;3.80
35582;BMP180;21687;48.900;9.188;2024-01-06T06:06:15;97399.00;;;3.70
35582;BMP180;21687;48.900;9.188;2024-01-06T06:08:44;97408.00;;;3.70
35582;BMP180;21687;48.900;9.188;2024-01-06T06:11:11;97415.00;;;3.70
35582;BMP180;21687;48.900;9.188;2024-01-06T06:13:44;97422.00;;;3.70
35582;BMP180;21687;48.900;9.188;2024-01-06T06:16:10;97427.00;;;3.60
35582;BMP180;21687;48.900;9.188;2024-01-06T06:18:40;97428.00;;;3.70
35582;BMP180;21687;48.900;9.188;2024-01-06T06:21:07;97435.00;;;3.70
35582;BMP180;21687;48.900;9.188;2024-01-06T06:23:34;97439.00;;;3.70
35582;BMP180;21687;48.900;9.188;2024-01-06T06:26:05;97442.00;;;3.70
35582;BMP180;21687;48.900;9.188;2024-01-06T06:28:32;97436.00;;;3.80
35582;BMP180;21687;48.900;9.188;2024-01-06T06:30:58;97435.00;;;3.80
35582;BMP180;21687;48.900;9.188;2024-01-06T06:33:25;97431.00;;;3.90
35582;BMP180;21687;48.900;9.188;2024-01-06T06:35:51;97444.00;;;3.90
35582;BMP180;21687;48.900;9.188;2024-01-06T06:38:18;97435.00;;;4.00
35582;BMP180;21687;48.900;9.188;2024-01-06T06:40:44;97432.00;;;4.00
35582;BMP180;21687;48.900;9.188;2024-01-06T06:43:11;97434.00;;;4.00
35582;BMP180;21687;48.900;9.188;2024-01-06T06:45:37;97444.00;;;4.00
35582;BMP180;21687;48.900;9.188;2024-01-06T06:48:04;97445.00;;;4.10
35582;BMP180;21687;48.900;9.188;2024-01-06T06:50:30;97454.00;;;4.20
35582;BMP180;21687;48.900;9.188;2024-01-06T06:52:57;97450.00;;;4.20
35582;BMP180;21687;48.900;9.188;2024-01-06T06:55:23;97456.00;;;4.30
35582;BMP180;21687;48.900;9.188;2024-01-06T06:57:50;97463.00;;;4.30
35582;BMP180;21687;48.900;9.188;2024-01-06T07:00:16;97452.00;;;4.30
35582;BMP180;21687;48.900;9.188;2024-01-06T07:02:43;97464.00;;;4.40
35582;BMP180;21687;48.900;9.188;2024-01-06T07:05:09;97468.00;;;4.50
35582;BMP180;21687;48.900;9.188;2024-01-06T07:07:36;97471.00;;;4.50
35582;BMP180;21687;48.900;9.188;2024-01-06T07:10:05;97467.00;;;4.50
35582;BMP180;21687;48.900;9.188;2024-01-06T07:12:32;97477.00;;;4.60
35582;BMP180;21687;48.900;9.188;2024-01-06T07:14:58;97485.00;;;4.60
35582;BMP180;21687;48.900;9.188;2024-01-06T07:17:25;97487.00;;;4.70
35582;BMP180;21687;48.900;9.188;2024-01-06T07:19:51;97480.00;;;4.60
35582;BMP180;21687;48.900;9.188;2024-01-06T07:22:18;97482.00;;;4.60
35582;BMP180;21687;48.900;9.188;2024-01-06T07:24:44;97487.00;;;4.70
35582;BMP180;21687;48.900;9.188;2024-01-06T07:27:11;97492.00;;;4.70
35582;BMP180;21687;48.900;9.188;2024-01-06T07:29:37;97485.00;;;4.70
35582;BMP180;21687;48.900;9.188;2024-01-06T07:32:05;97492.00;;;4.70
35582;BMP180;21687;48.900;9.188;2024-01-06T07:34:32;97496.00;;;4.80
35582;BMP180;21687;48.900;9.188;2024-01-06T07:36:59;97492.00;;;4.90
35582;BMP180;21687;48.900;9.188;2024-01-06T07:39:26;97494.00;;;4.90
35582;BMP180;21687;48.900;9.188;2024-01-06T07:41:52;97487.00;;;4.90
35582;BMP180;21687;48.900;9.188;2024-01-06T07:44:18;97495.00;;;4.90
35582;BMP180;21687;48.900;9.188;2024-01-06T07:46:51;97514.00;;;4.90
35582;BMP180;21687;48.900;9.188;2024-01-06T07:49:18;97515.00;;;5.00
35582;BMP180;21687;48.900;9.188;2024-01-06T07:51:44;97515.00;;;5.00
35582;BMP180;21687;48.900;9.188;2024-01-06T07:54:11;97521.00;;;5.10
35582;BMP180;21687;48.900;9.188;2024-01-06T07:56:38;97512.00;;;5.00
35582;BMP180;21687;48.900;9.188;2024-01-06T07:59:05;97504.00;;;5.10
35582;BMP180;21687;48.900;9.188;2024-01-06T08:01:32;97509.00;;;5.10
35582;BMP180;21687;48.900;9.188;2024-01-06T08:03:59;97510.00;;;5.10
35582;BMP180;21687;48.900;9.188;2024-01-06T08:06:25;97509.00;;;5.00
35582;BMP180;21687;48.900;9.188;2024-01-06T08:08:52;97502.00;;;5.00
35582;BMP180;21687;48.900;9.188;2024-01-06T08:11:18;97511.00;;;5.10
35582;BMP180;21687;48.900;9.188;2024-01-06T08:13:46;97514.00;;;5.20
35582;BMP180;21687;48.900;9.188;2024-01-06T08:16:13;97520.00;;;5.20
35582;BMP180;21687;48.900;9.188;2024-01-06T08:18:39;97523.00;;;5.20
35582;BMP180;21687;48.900;9.188;2024-01-06T08:21:06;97514.00;;;5.20
35582;BMP180;21687;48.900;9.188;2024-01-06T08:23:32;97527.00;;;5.20
35582;BMP180;21687;48.900;9.188;2024-01-06T08:25:59;97515.00;;;5.30
35582;BMP180;21687;48.900;9.188;2024-01-06T08:28:26;97515.00;;;5.30
35582;BMP180;21687;48.900;9.188;2024-01-06T08:30:52;97521.00;;;5.30
35582;BMP180;21687;48.900;9.188;2024-01-06T08:33:19;97530.00;;;5.30
35582;BMP180;21687;48.900;9.188;2024-01-06T08:35:45;97538.00;;;5.30
35582;BMP180;21687;48.900;9.188;2024-01-06T08:38:11;97535.00;;;5.30
35582;BMP180;21687;48.900;9.188;2024-01-06T08:40:38;97534.00;;;5.30
35582;BMP180;21687;48.900;9.188;2024-01-06T08:43:04;97538.00;;;5.30
35582;BMP180;21687;48.900;9.188;2024-01-06T08:45:31;97541.00;;;5.20
35582;BMP180;21687;48.900;9.188;2024-01-06T08:47:58;97548.00;;;5.20
35582;BMP180;21687;48.900;9.188;2024-01-06T08:50:24;97547.00;;;5.00
35582;BMP180;21687;48.900;9.188;2024-01-06T08:52:51;97542.00;;;5.10
35582;BMP180;21687;48.900;9.188;2024-01-06T08:55:17;97547.00;;;5.20
35582;BMP180;21687;48.900;9.188;2024-01-06T08:57:43;97546.00;;;5.20
35582;BMP180;21687;48.900;9.188;2024-01-06T09:00:10;97553.00;;;5.10
35582;BMP180;21687;48.900;9.188;2024-01-06T09:02:38;97547.00;;;5.20
35582;BMP180;21687;48.900;9.188;2024-01-06T09:05:04;97547.00;;;5.30
35582;BMP180;21687;48.900;9.188;2024-01-06T09:07:31;97551.00;;;5.50
35582;BMP180;21687;48.900;9.188;2024-01-06T09:09:57;97547.00;;;5.60
35582;BMP180;21687;48.900;9.188;2024-01-06T09:12:24;97563.00;;;5.70
35582;BMP180;21687;48.900;9.188;2024-01-06T09:14:50;97563.00;;;5.90
35582;BMP180;21687;48.900;9.188;2024-01-06T09:17:16;97558.00;;;6.10
35582;BMP180;21687;48.900;9.188;2024-01-06T09:19:43;97561.00;;;6.10
35582;BMP180;21687;48.900;9.188;2024-01-06T09:22:09;97569.00;;;6.20
35582;BMP180;21687;48.900;9.188;2024-01-06T09:24:36;97561.00;;;6.10
35582;BMP180;21687;48.900;9.188;2024-01-06T09:27:02;97559.00;;;6.00
35582;BMP180;21687;48.900;9.188;2024-01-06T09:29:29;97563.00;;;6.00
35582;BMP180;21687;48.900;9.188;2024-01-06T09:31:56;97568.00;;;5.90
35582;BMP180;21687;48.900;9.188;2024-01-06T09:34:22;97569.00;;;5.90
35582;BMP180;21687;48.900;9.188;2024-01-06T09:36:48;97578.00;;;5.70
35582;BMP180;21687;48.900;9.188;2024-01-06T09:39:15;97576.00;;;5.70
35582;BMP180;21687;48.900;9.188;2024-01-06T09:41:41;97578.00;;;5.60
35582;BMP180;21687;48.900;9.188;2024-01-06T09:44:08;97598.00;;;5.60
35582;BMP180;21687;48.900;9.188;2024-01-06T09:46:35;97591.00;;;5.60
35582;BMP180;21687;48.900;9.188;2024-01-06T09:49:03;97593.00;;;5.50
35582;BMP180;21687;48.900;9.188;2024-01-06T09:51:30;97587.00;;;5.40
35582;BMP180;21687;48.900;9.188;2024-01-06T09:54:01;97603.00;;;5.30
35582;BMP180;21687;48.900;9.188;2024-01-06T09:56:29;97596.00;;;5.30
35582;BMP180;21687;48.900;9.188;2024-01-06T09:58:56;97606.00;;;5.30
35582;BMP180;21687;48.900;9.188;2024-01-06T10:01:23;97600.00;;;5.30
35582;BMP180;21687;48.900;9.188;2024-01-06T10:03:49;97599.00;;;5.30
35582;BMP180;21687;48.900;9.188;2024-01-06T10:06:16;97604.00;;;5.30
35582;BMP180;21687;48.900;9.188;2024-01-06T10:08:49;97603.00;;;5.40
35582;BMP180;21687;48.900;9.188;2024-01-06T10:11:16;97599.00;;;5.50
35582;BMP180;21687;48.900;9.188;2024-01-06T10:13:44;97600.00;;;5.40
35582;BMP180;21687;48.900;9.188;2024-01-06T10:16:10;97594.00;;;5.40
35582;BMP180;21687;48.900;9.188;2024-01-06T10:18:37;97608.00;;;5.50
35582;BMP180;21687;48.900;9.188;2024-01-06T10:21:04;97600.00;;;5.40
35582;BMP180;21687;48.900;9.188;2024-01-06T10:23:34;97604.00;;;5.30
35582;BMP180;21687;48.900;9.188;2024-01-06T10:26:03;97587.00;;;5.30
35582;BMP180;21687;48.900;9.188;2024-01-06T10:28:30;97591.00;;;5.30
35582;BMP180;21687;48.900;9.188;2024-01-06T10:30:56;97603.00;;;5.40
35582;BMP180;21687;48.900;9.188;2024-01-06T10:33:25;97596.00;;;5.30
35582;BMP180;21687;48.900;9.188;2024-01-06T10:35:53;97603.00;;;5.40
35582;BMP180;21687;48.900;9.188;2024-01-06T10:38:21;97598.00;;;5.40
35582;BMP180;21687;48.900;9.188;2024-01-06T10:41:00;97599.00;;;5.40
35582;BMP180;21687;48.900;9.188;2024-01-06T10:43:34;97601.00;;;5.40
35582;BMP180;21687;48.900;9.188;2024-01-06T10:46:05;97610.00;;;5.50
35582;BMP180;21687;48.900;9.188;2024-01-06T10:48:37;97607.00;;;5.50
35582;BMP180;21687;48.900;9.188;2024-01-06T10:51:12;97605.00;;;5.40
35582;BMP180;21687;48.900;9.188;2024-01-06T10:53:42;97600.00;;;5.30
35582;BMP180;21687;48.900;9.188;2024-01-06T10:56:10;97602.00;;;5.30
35582;BMP180;21687;48.900;9.188;2024-01-06T10:58:46;97605.00;;;5.30
35582;BMP180;21687;48.900;9.188;2024-01-06T11:01:14;97605.00;;;5.30
35582;BMP180;21687;48.900;9.188;2024-01-06T11:03:40;97594.00;;;5.40
35582;BMP180;21687;48.900;9.188;2024-01-06T11:06:10;97607.00;;;5.40
35582;BMP180;21687;48.900;9.188;2024-01-06T11:09:31;97599.00;;;5.40
35582;BMP180;21687;48.900;9.188;2024-01-06T11:11:31;97603.00;;;5.50
35582;BMP180;21687;48.900;9.188;2024-01-06T11:14:18;97590.00;;;5.50
35582;BMP180;21687;48.900;9.188;2024-01-06T11:16:46;97594.00;;;5.50
35582;BMP180;21687;48.900;9.188;2024-01-06T11:22:40;97601.00;;;5.40
35582;BMP180;21687;48.900;9.188;2024-01-06T11:25:13;97592.00;;;5.40
35582;BMP180;21687;48.900;9.188;2024-01-06T11:27:40;97599.00;;;5.40
35582;BMP180;21687;48.900;9.188;2024-01-06T11:30:08;97595.00;;;5.50
35582;BMP180;21687;48.900;9.188;2024-01-06T11:32:45;97591.00;;;5.70
35582;BMP180;21687;48.900;9.188;2024-01-06T11:35:14;97591.00;;;5.70
35582;BMP180;21687;48.900;9.188;2024-01-06T11:43:04;97578.00;;;5.50
35582;BMP180;21687;48.900;9.188;2024-01-06T11:45:36;97571.00;;;5.40
35582;BMP180;21687;48.900;9.188;2024-01-06T11:48:04;97575.00;;;5.50
35582;BMP180;21687;48.900;9.188;2024-01-06T11:50:35;97563.00;;;5.50
35582;BMP180;21687;48.900;9.188;2024-01-06T11:53:03;97565.00;;;5.80
35582;BMP180;21687;48.900;9.188;2024-01-06T11:55:30;97562.00;;;5.80
35582;BMP180;21687;48.900;9.188;2024-01-06T11:58:01;97568.00;;;5.80
35582;BMP180;21687;48.900;9.188;2024-01-06T12:00:33;97558.00;;;5.70
35582;BMP180;21687;48.900;9.188;2024-01-06T12:03:01;97562.00;;;5.80
35582;BMP180;21687;48.900;9.188;2024-01-06T12:05:28;97554.00;;;5.90
35582;BMP180;21687;48.900;9.188;2024-01-06T12:07:59;97548.00;;;5.90
35582;BMP180;21687;48.900;9.188;2024-01-06T12:10:27;97563.00;;;6.00
35582;BMP180;21687;48.900;9.188;2024-01-06T12:13:05;97557.00;;;5.90
35582;BMP180;21687;48.900;9.188;2024-01-06T12:15:35;97551.00;;;5.80
35582;BMP180;21687;48.900;9.188;2024-01-06T12:18:04;97554.00;;;5.90
35582;BMP180;21687;48.900;9.188;2024-01-06T12:20:31;97563.00;;;5.90
35582;BMP180;21687;48.900;9.188;2024-01-06T12:22:58;97562.00;;;5.70
35582;BMP180;21687;48.900;9.188;2024-01-06T12:25:26;97559.00;;;5.70
35582;BMP180;21687;48.900;9.188;2024-01-06T12:27:55;97561.00;;;5.70
35582;BMP180;21687;48.900;9.188;2024-01-06T12:30:22;97560.00;;;5.60
35582;BMP180;21687;48.900;9.188;2024-01-06T12:32:50;97554.00;;;5.60
35582;BMP180;21687;48.900;9.188;2024-01-06T12:35:19;97554.00;;;5.50
35582;BMP180;21687;48.900;9.188;2024-01-06T12:37:46;97556.00;;;5.50
35582;BMP180;21687;48.900;9.188;2024-01-06T12:40:13;97567.00;;;5.50
35582;BMP180;21687;48.900;9.188;2024-01-06T12:42:40;97558.00;;;5.60
35582;BMP180;21687;48.900;9.188;2024-01-06T12:45:08;97558.00;;;5.60
35582;BMP180;21687;48.900;9.188;2024-01-06T12:47:36;97555.00;;;5.60
35582;BMP180;21687;48.900;9.188;2024-01-06T12:50:03;97564.00;;;5.60
35582;BMP180;21687;48.900;9.188;2024-01-06T12:52:30;97558.00;;;5.60
35582;BMP180;21687;48.900;9.188;2024-01-06T12:54:56;97558.00;;;5.60
35582;BMP180;21687;48.900;9.188;2024-01-06T12:57:23;97551.00;;;5.60
35582;BMP180;21687;48.900;9.188;2024-01-06T12:59:50;97545.00;;;5.50
35582;BMP180;21687;48.900;9.188;2024-01-06T13:02:16;97557.00;;;5.50
35582;BMP180;21687;48.900;9.188;2024-01-06T13:04:43;97551.00;;;5.60
35582;BMP180;21687;48.900;9.188;2024-01-06T13:07:09;97550.00;;;5.50
35582;BMP180;21687;48.900;9.188;2024-01-06T13:09:38;97550.00;;;5.50
35582;BMP180;21687;48.900;9.188;2024-01-06T13:12:06;97559.00;;;5.50
35582;BMP180;21687;48.900;9.188;2024-01-06T13:14:32;97552.00;;;5.50
35582;BMP180;21687;48.900;9.188;2024-01-06T13:16:59;97565.00;;;5.40
35582;BMP180;21687;48.900;9.188;2024-01-06T13:19:25;97555.00;;;5.30
35582;BMP180;21687;48.900;9.188;2024-01-06T13:21:53;97558.00;;;5.40
35582;BMP180;21687;48.900;9.188;2024-01-06T13:24:19;97555.00;;;5.40
35582;BMP180;21687;48.900;9.188;2024-01-06T13:26:46;97570.00;;;5.50
35582;BMP180;21687;48.900;9.188;2024-01-06T13:29:12;97574.00;;;5.40
35582;BMP180;21687;48.900;9.188;2024-01-06T13:31:39;97573.00;;;5.40
35582;BMP180;21687;48.900;9.188;2024-01-06T13:34:06;97563.00;;;5.40
35582;BMP180;21687;48.900;9.188;2024-01-06T13:36:32;97569.00;;;5.40
35582;BMP180;21687;48.900;9.188;2024-01-06T13:38:59;97577.00;;;5.30
35582;BMP180;21687;48.900;9.188;2024-01-06T13:41:26;97569.00;;;5.30
35582;BMP180;21687;48.900;9.188;2024-01-06T13:43:52;97575.00;;;5.30
35582;BMP180;21687;48.900;9.188;2024-01-06T13:46:19;97571.00;;;5.30
35582;BMP180;21687;48.900;9.188;2024-01-06T13:48:45;97584.00;;;5.30
35582;BMP180;21687;48.900;9.188;2024-01-06T13:51:12;97594.00;;;5.40
35582;BMP180;21687;48.900;9.188;2024-01-06T13:53:38;97584.00;;;5.40
35582;BMP180;21687;48.900;9.188;2024-01-06T13:56:05;97586.00;;;5.40
35582;BMP180;21687;48.900;9.188;2024-01-06T13:58:32;97587.00;;;5.40
35582;BMP180;21687;48.900;9.188;2024-01-06T14:00:58;97594.00;;;5.40
35582;BMP180;21687;48.900;9.188;2024-01-06T14:03:24;97594.00;;;5.40
35582;BMP180;21687;48.900;9.188;2024-01-06T14:05:51;97594.00;;;5.40
35582;BMP180;21687;48.900;9.188;2024-01-06T14:08:19;97603.00;;;5.50
35582;BMP180;21687;48.900;9.188;2024-01-06T14:10:46;97597.00;;;5.60
35582;BMP180;21687;48.900;9.188;2024-01-06T14:13:12;97601.00;;;5.60
35582;BMP180;21687;48.900;9.188;2024-01-06T14:15:38;97596.00;;;5.50
35582;BMP180;21687;48.900;9.188;2024-01-06T14:18:06;97600.00;;;5.50
35582;BMP180;21687;48.900;9.188;2024-01-06T14:20:32;97601.00;;;5.40
35582;BMP180;21687;48.900;9.188;2024-01-06T14:23:04;97600.00;;;5.40
35582;BMP180;21687;48.900;9.188;2024-01-06T14:25:33;97605.00;;;5.40
35582;BMP180;21687;48.900;9.188;2024-01-06T14:28:00;97608.00;;;5.50
35582;BMP180;21687;48.900;9.188;2024-01-06T14:30:26;97613.00;;;5.50